sensor_id;sensor_type;location;lat;lon;timestamp;pressure;altitude;pressure_sealevel;temperature;humidity
55456;BME280;63021;52.836;6.376;2022-10-31T00:00:27;102113.78;;;13.10;76.55
55456;BME280;63021;52.836;6.376;2022-10-31T00:02:52;102119.28;;;13.08;76.49
55456;BME280;63021;52.836;6.376;2022-10-31T00:05:17;102111.53;;;13.05;76.76
55456;BME280;63021;52.836;6.376;2022-10-31T00:07:42;102117.00;;;13.04;76.61
55456;BME280;63021;52.836;6.376;2022-10-31T00:10:08;102122.75;;;12.99;76.61
55456;BME280;63021;52.836;6.376;2022-10-31T00:12:33;102115.13;;;12.94;76.36
55456;BME280;63021;52.836;6.376;2022-10-31T00:14:58;102119.03;;;12.90;76.38
55456;BME280;63021;52.836;6.376;2022-10-31T00:17:24;102115.91;;;12.85;76.44
55456;BME280;63021;52.836;6.376;2022-10-31T00:19:49;102120.69;;;12.81;76.66
55456;BME280;63021;52.836;6.376;2022-10-31T00:22:14;102128.94;;;12.78;76.94
55456;BME280;63021;52.836;6.376;2022-10-31T00:24:39;102121.31;;;12.74;77.22
55456;BME280;63021;52.836;6.376;2022-10-31T00:27:04;102123.41;;;12.70;76.56
55456;BME280;63021;52.836;6.376;2022-10-31T00:29:30;102131.56;;;12.69;77.19
55456;BME280;63021;52.836;6.376;2022-10-31T00:31:55;102133.63;;;12.65;76.52
55456;BME280;63021;52.836;6.376;2022-10-31T00:34:20;102119.44;;;12.64;76.68
55456;BME280;63021;52.836;6.376;2022-10-31T00:36:45;102123.19;;;12.62;76.47
55456;BME280;63021;52.836;6.376;2022-10-31T00:39:11;102127.84;;;12.60;76.64
55456;BME280;63021;52.836;6.376;2022-10-31T00:41:36;102135.13;;;12.58;76.91
55456;BME280;63021;52.836;6.376;2022-10-31T00:44:02;102128.19;;;12.55;76.24
55456;BME280;63021;52.836;6.376;2022-10-31T00:46:27;102137.22;;;12.54;76.70
55456;BME280;63021;52.836;6.376;2022-10-31T00:48:52;102126.63;;;12.53;77.00
55456;BME280;63021;52.836;6.376;2022-10-31T00:51:17;102124.94;;;12.52;76.76
55456;BME280;63021;52.836;6.376;2022-10-31T00:53:42;102134.91;;;12.50;76.33
55456;BME280;63021;52.836;6.376;2022-10-31T00:56:08;102134.19;;;12.47;76.63
55456;BME280;63021;52.836;6.376;2022-10-31T00:58:33;102133.34;;;12.47;76.13
55456;BME280;63021;52.836;6.376;2022-10-31T01:00:58;102138.78;;;12.45;77.01
55456;BME280;63021;52.836;6.376;2022-10-31T01:03:24;102140.63;;;12.45;76.13
55456;BME280;63021;52.836;6.376;2022-10-31T01:06:01;102142.47;;;12.44;76.05
55456;BME280;63021;52.836;6.376;2022-10-31T01:08:27;102145.25;;;12.43;76.45
55456;BME280;63021;52.836;6.376;2022-10-31T01:11:10;102152.28;;;12.44;76.34
55456;BME280;63021;52.836;6.376;2022-10-31T01:13:39;102157.75;;;12.42;76.35
55456;BME280;63021;52.836;6.376;2022-10-31T01:16:04;102150.72;;;12.41;76.44
55456;BME280;63021;52.836;6.376;2022-10-31T01:18:30;102150.72;;;12.41;77.06
55456;BME280;63021;52.836;6.376;2022-10-31T01:23:24;102152.66;;;12.39;76.65
55456;BME280;63021;52.836;6.376;2022-10-31T01:25:49;102149.16;;;12.39;76.68
55456;BME280;63021;52.836;6.376;2022-10-31T01:28:14;102151.84;;;12.39;76.51
55456;BME280;63021;52.836;6.376;2022-10-31T01:30:39;102149.28;;;12.37;76.61
55456;BME280;63021;52.836;6.376;2022-10-31T01:33:05;102156.44;;;12.37;76.77
55456;BME280;63021;52.836;6.376;2022-10-31T01:35:30;102144.91;;;12.36;75.80
55456;BME280;63021;52.836;6.376;2022-10-31T01:37:55;102141.41;;;12.36;76.93
55456;BME280;63021;52.836;6.376;2022-10-31T01:40:20;102143.34;;;12.34;76.61
55456;BME280;63021;52.836;6.376;2022-10-31T01:42:45;102145.31;;;12.32;76.55
55456;BME280;63021;52.836;6.376;2022-10-31T01:45:11;102146.25;;;12.30;76.96
55456;BME280;63021;52.836;6.376;2022-10-31T01:47:41;102151.03;;;12.27;76.81
55456;BME280;63021;52.836;6.376;2022-10-31T01:50:11;102156.59;;;12.24;76.60
55456;BME280;63021;52.836;6.376;2022-10-31T01:52:42;102150.66;;;12.20;76.33
55456;BME280;63021;52.836;6.376;2022-10-31T01:55:13;102157.22;;;12.16;77.17
55456;BME280;63021;52.836;6.376;2022-10-31T01:57:41;102154.81;;;12.13;76.40
55456;BME280;63021;52.836;6.376;2022-10-31T02:00:08;102147.06;;;12.10;76.98
55456;BME280;63021;52.836;6.376;2022-10-31T02:02:35;102154.47;;;12.06;77.11
55456;BME280;63021;52.836;6.376;2022-10-31T02:05:01;102144.78;;;12.05;77.22
55456;BME280;63021;52.836;6.376;2022-10-31T02:07:34;102159.22;;;12.03;76.97
55456;BME280;63021;52.836;6.376;2022-10-31T02:10:02;102153.13;;;12.01;76.77
55456;BME280;63021;52.836;6.376;2022-10-31T02:12:28;102157.63;;;12.00;77.16
55456;BME280;63021;52.836;6.376;2022-10-31T02:14:54;102155.34;;;11.95;76.96
55456;BME280;63021;52.836;6.376;2022-10-31T02:17:19;102151.94;;;11.93;76.58
55456;BME280;63021;52.836;6.376;2022-10-31T02:22:26;102140.03;;;11.86;76.89
55456;BME280;63021;52.836;6.376;2022-10-31T02:24:56;102146.44;;;11.84;77.48
55456;BME280;63021;52.836;6.376;2022-10-31T02:32:43;102138.09;;;11.77;76.86
55456;BME280;63021;52.836;6.376;2022-10-31T02:35:19;102134.69;;;11.75;77.23
55456;BME280;63021;52.836;6.376;2022-10-31T02:40:33;102130.56;;;11.71;77.02
55456;BME280;63021;52.836;6.376;2022-10-31T02:43:35;102134.22;;;11.70;77.29
55456;BME280;63021;52.836;6.376;2022-10-31T02:45:57;102132.66;;;11.67;76.81
55456;BME280;63021;52.836;6.376;2022-10-31T02:48:24;102131.81;;;11.67;77.02
55456;BME280;63021;52.836;6.376;2022-10-31T02:51:01;102135.44;;;11.66;76.54
55456;BME280;63021;52.836;6.376;2022-10-31T02:53:31;102130.25;;;11.64;76.50
55456;BME280;63021;52.836;6.376;2022-10-31T02:56:01;102130.47;;;11.61;77.33
55456;BME280;63021;52.836;6.376;2022-10-31T02:58:28;102121.03;;;11.57;76.73
55456;BME280;63021;52.836;6.376;2022-10-31T03:01:05;102131.94;;;11.54;77.21
55456;BME280;63021;52.836;6.376;2022-10-31T03:06:17;102132.66;;;11.44;76.70
55456;BME280;63021;52.836;6.376;2022-10-31T03:11:43;102142.09;;;11.37;77.33
55456;BME280;63021;52.836;6.376;2022-10-31T03:14:10;102144.19;;;11.34;77.29
55456;BME280;63021;52.836;6.376;2022-10-31T03:16:47;102141.75;;;11.31;77.49
55456;BME280;63021;52.836;6.376;2022-10-31T03:19:16;102136.50;;;11.29;76.98
55456;BME280;63021;52.836;6.376;2022-10-31T03:21:53;102140.16;;;11.28;76.81
55456;BME280;63021;52.836;6.376;2022-10-31T03:24:20;102144.63;;;11.27;76.70
55456;BME280;63021;52.836;6.376;2022-10-31T03:26:48;102143.81;;;11.27;76.99
55456;BME280;63021;52.836;6.376;2022-10-31T03:29:15;102146.47;;;11.27;76.81
55456;BME280;63021;52.836;6.376;2022-10-31T03:31:46;102134.22;;;11.24;77.51
55456;BME280;63021;52.836;6.376;2022-10-31T03:34:12;102137.13;;;11.21;76.51
55456;BME280;63021;52.836;6.376;2022-10-31T03:36:39;102137.50;;;11.17;76.71
55456;BME280;63021;52.836;6.376;2022-10-31T03:39:05;102131.53;;;11.13;76.83
55456;BME280;63021;52.836;6.376;2022-10-31T03:41:33;102132.72;;;11.09;76.75
55456;BME280;63021;52.836;6.376;2022-10-31T03:44:04;102134.69;;;11.07;76.84
55456;BME280;63021;52.836;6.376;2022-10-31T03:46:31;102138.31;;;11.06;76.91
55456;BME280;63021;52.836;6.376;2022-10-31T03:48:57;102143.63;;;11.06;77.78
55456;BME280;63021;52.836;6.376;2022-10-31T03:51:28;102145.34;;;11.07;76.63
55456;BME280;63021;52.836;6.376;2022-10-31T03:56:51;102142.09;;;11.03;76.73
55456;BME280;63021;52.836;6.376;2022-10-31T03:59:19;102157.44;;;11.00;76.54
55456;BME280;63021;52.836;6.376;2022-10-31T04:01:47;102153.31;;;10.96;76.74
55456;BME280;63021;52.836;6.376;2022-10-31T04:04:14;102158.16;;;10.90;76.68
55456;BME280;63021;52.836;6.376;2022-10-31T04:06:39;102153.03;;;10.87;77.04
55456;BME280;63021;52.836;6.376;2022-10-31T04:09:06;102152.56;;;10.82;77.40
55456;BME280;63021;52.836;6.376;2022-10-31T04:11:38;102135.81;;;10.80;77.31
55456;BME280;63021;52.836;6.376;2022-10-31T04:14:05;102145.03;;;10.76;76.99
55456;BME280;63021;52.836;6.376;2022-10-31T04:16:31;102155.91;;;10.73;77.51
55456;BME280;63021;52.836;6.376;2022-10-31T04:18:56;102149.84;;;10.71;76.92
55456;BME280;63021;52.836;6.376;2022-10-31T04:21:28;102157.97;;;10.69;77.05
55456;BME280;63021;52.836;6.376;2022-10-31T04:23:54;102153.72;;;10.67;77.71
55456;BME280;63021;52.836;6.376;2022-10-31T04:26:19;102154.66;;;10.66;76.82
55456;BME280;63021;52.836;6.376;2022-10-31T04:28:45;102154.78;;;10.64;77.28
55456;BME280;63021;52.836;6.376;2022-10-31T04:31:10;102145.22;;;10.62;77.47
55456;BME280;63021;52.836;6.376;2022-10-31T04:33:36;102154.19;;;10.61;77.21
55456;BME280;63021;52.836;6.376;2022-10-31T04:36:01;102148.09;;;10.58;76.67
55456;BME280;63021;52.836;6.376;2022-10-31T04:38:26;102149.09;;;10.57;77.55
55456;BME280;63021;52.836;6.376;2022-10-31T04:40:51;102147.50;;;10.55;77.18
55456;BME280;63021;52.836;6.376;2022-10-31T04:43:17;102149.41;;;10.53;76.76
55456;BME280;63021;52.836;6.376;2022-10-31T04:45:42;102146.97;;;10.50;76.85
55456;BME280;63021;52.836;6.376;2022-10-31T04:48:07;102153.50;;;10.46;77.74
55456;BME280;63021;52.836;6.376;2022-10-31T04:50:33;102154.59;;;10.43;77.03
55456;BME280;63021;52.836;6.376;2022-10-31T04:52:58;102160.97;;;10.40;77.34
55456;BME280;63021;52.836;6.376;2022-10-31T04:55:23;102152.25;;;10.38;77.32
55456;BME280;63021;52.836;6.376;2022-10-31T04:57:49;102150.56;;;10.37;77.00
55456;BME280;63021;52.836;6.376;2022-10-31T05:00:15;102161.31;;;10.36;77.39
55456;BME280;63021;52.836;6.376;2022-10-31T05:02:47;102160.47;;;10.35;77.45
55456;BME280;63021;52.836;6.376;2022-10-31T05:05:13;102157.03;;;10.33;77.27
55456;BME280;63021;52.836;6.376;2022-10-31T05:07:42;102151.94;;;10.30;77.58
55456;BME280;63021;52.836;6.376;2022-10-31T05:10:18;102156.63;;;10.27;76.79
55456;BME280;63021;52.836;6.376;2022-10-31T05:12:51;102154.19;;;10.23;77.18
55456;BME280;63021;52.836;6.376;2022-10-31T05:15:17;102148.16;;;10.21;77.83
55456;BME280;63021;52.836;6.376;2022-10-31T05:17:42;102148.25;;;10.20;77.30
55456;BME280;63021;52.836;6.376;2022-10-31T05:20:08;102149.22;;;10.19;77.20
55456;BME280;63021;52.836;6.376;2022-10-31T05:22:34;102143.16;;;10.17;77.07
55456;BME280;63021;52.836;6.376;2022-10-31T05:24:59;102140.59;;;10.15;77.16
55456;BME280;63021;52.836;6.376;2022-10-31T05:27:24;102147.84;;;10.13;77.02
55456;BME280;63021;52.836;6.376;2022-10-31T05:29:50;102151.47;;;10.12;77.03
55456;BME280;63021;52.836;6.376;2022-10-31T05:32:15;102146.25;;;10.11;77.37
55456;BME280;63021;52.836;6.376;2022-10-31T05:34:40;102143.72;;;10.09;77.75
55456;BME280;63021;52.836;6.376;2022-10-31T05:37:05;102135.97;;;10.06;77.53
55456;BME280;63021;52.836;6.376;2022-10-31T05:39:31;102147.69;;;10.03;77.26
55456;BME280;63021;52.836;6.376;2022-10-31T05:41:57;102154.94;;;10.01;77.27
55456;BME280;63021;52.836;6.376;2022-10-31T05:44:22;102151.84;;;9.95;77.07
55456;BME280;63021;52.836;6.376;2022-10-31T05:46:47;102153.03;;;9.91;77.88
55456;BME280;63021;52.836;6.376;2022-10-31T05:49:13;102148.78;;;9.88;77.66
55456;BME280;63021;52.836;6.376;2022-10-31T05:51:38;102150.81;;;9.84;77.26
55456;BME280;63021;52.836;6.376;2022-10-31T05:54:03;102151.03;;;9.81;77.67
55456;BME280;63021;52.836;6.376;2022-10-31T05:56:29;102148.56;;;9.78;77.47
55456;BME280;63021;52.836;6.376;2022-10-31T05:58:54;102150.50;;;9.76;78.08
55456;BME280;63021;52.836;6.376;2022-10-31T06:01:19;102150.72;;;9.73;77.57
55456;BME280;63021;52.836;6.376;2022-10-31T06:03:44;102152.63;;;9.71;77.33
55456;BME280;63021;52.836;6.376;2022-10-31T06:06:10;102145.84;;;9.67;78.09
55456;BME280;63021;52.836;6.376;2022-10-31T06:08:35;102146.06;;;9.64;77.14
55456;BME280;63021;52.836;6.376;2022-10-31T06:11:00;102147.16;;;9.61;77.64
55456;BME280;63021;52.836;6.376;2022-10-31T06:13:26;102150.75;;;9.60;77.37
55456;BME280;63021;52.836;6.376;2022-10-31T06:15:51;102154.38;;;9.59;77.94
55456;BME280;63021;52.836;6.376;2022-10-31T06:18:16;102152.66;;;9.58;77.00
55456;BME280;63021;52.836;6.376;2022-10-31T06:20:41;102147.44;;;9.57;77.41
55456;BME280;63021;52.836;6.376;2022-10-31T06:23:07;102143.22;;;9.54;77.67
55456;BME280;63021;52.836;6.376;2022-10-31T06:25:32;102143.22;;;9.54;77.12
55456;BME280;63021;52.836;6.376;2022-10-31T06:27:58;102138.84;;;9.53;77.38
55456;BME280;63021;52.836;6.376;2022-10-31T06:30:23;102146.94;;;9.51;78.30
55456;BME280;63021;52.836;6.376;2022-10-31T06:32:49;102143.53;;;9.49;77.86
55456;BME280;63021;52.836;6.376;2022-10-31T06:35:14;102149.81;;;9.48;77.87
55456;BME280;63021;52.836;6.376;2022-10-31T06:37:39;102144.50;;;9.48;77.21
55456;BME280;63021;52.836;6.376;2022-10-31T06:40:05;102148.09;;;9.47;76.99
55456;BME280;63021;52.836;6.376;2022-10-31T06:42:30;102134.94;;;9.46;77.89
55456;BME280;63021;52.836;6.376;2022-10-31T06:44:55;102139.47;;;9.44;77.36
55456;BME280;63021;52.836;6.376;2022-10-31T06:47:21;102135.16;;;9.43;77.48
55456;BME280;63021;52.836;6.376;2022-10-31T06:49:46;102135.25;;;9.41;78.15
55456;BME280;63021;52.836;6.376;2022-10-31T06:52:11;102130.06;;;9.40;77.51
55456;BME280;63021;52.836;6.376;2022-10-31T06:54:37;102133.53;;;9.40;77.18
55456;BME280;63021;52.836;6.376;2022-10-31T06:57:02;102141.53;;;9.40;77.87
55456;BME280;63021;52.836;6.376;2022-10-31T06:59:27;102150.34;;;9.41;77.50
55456;BME280;63021;52.836;6.376;2022-10-31T07:01:52;102143.34;;;9.40;77.09
55456;BME280;63021;52.836;6.376;2022-10-31T07:04:17;102144.19;;;9.40;77.85
55456;BME280;63021;52.836;6.376;2022-10-31T07:06:43;102139.69;;;9.41;77.50
55456;BME280;63021;52.836;6.376;2022-10-31T07:09:08;102142.47;;;9.39;77.05
55456;BME280;63021;52.836;6.376;2022-10-31T07:11:33;102144.41;;;9.37;77.33
55456;BME280;63021;52.836;6.376;2022-10-31T07:13:58;102137.38;;;9.36;77.52
55456;BME280;63021;52.836;6.376;2022-10-31T07:16:24;102144.50;;;9.35;77.14
55456;BME280;63021;52.836;6.376;2022-10-31T07:18:49;102145.47;;;9.34;77.09
55456;BME280;63021;52.836;6.376;2022-10-31T07:21:15;102152.59;;;9.34;76.97
55456;BME280;63021;52.836;6.376;2022-10-31T07:23:40;102152.59;;;9.34;77.36
55456;BME280;63021;52.836;6.376;2022-10-31T07:26:05;102148.22;;;9.33;77.83
55456;BME280;63021;52.836;6.376;2022-10-31T07:28:31;102147.38;;;9.32;78.16
55456;BME280;63021;52.836;6.376;2022-10-31T07:30:56;102157.16;;;9.32;77.99
55456;BME280;63021;52.836;6.376;2022-10-31T07:33:22;102155.44;;;9.31;77.37
55456;BME280;63021;52.836;6.376;2022-10-31T07:35:48;102158.97;;;9.31;77.67
55456;BME280;63021;52.836;6.376;2022-10-31T07:38:13;102152.69;;;9.32;77.34
55456;BME280;63021;52.836;6.376;2022-10-31T07:40:39;102157.16;;;9.32;78.15
55456;BME280;63021;52.836;6.376;2022-10-31T07:43:05;102159.81;;;9.32;77.10
55456;BME280;63021;52.836;6.376;2022-10-31T07:45:30;102159.69;;;9.33;78.29
55456;BME280;63021;52.836;6.376;2022-10-31T07:47:56;102152.59;;;9.34;78.07
55456;BME280;63021;52.836;6.376;2022-10-31T07:52:46;102150.13;;;9.44;76.92
55456;BME280;63021;52.836;6.376;2022-10-31T07:55:12;102146.19;;;9.49;77.14
55456;BME280;63021;52.836;6.376;2022-10-31T07:57:37;102156.19;;;9.59;76.63
55456;BME280;63021;52.836;6.376;2022-10-31T08:00:03;102156.50;;;9.67;76.81
55456;BME280;63021;52.836;6.376;2022-10-31T08:02:29;102159.44;;;9.75;76.78
55456;BME280;63021;52.836;6.376;2022-10-31T08:04:54;102157.94;;;9.84;76.77
55456;BME280;63021;52.836;6.376;2022-10-31T08:07:20;102161.72;;;9.93;76.63
55456;BME280;63021;52.836;6.376;2022-10-31T08:09:45;102165.69;;;10.00;76.60
55456;BME280;63021;52.836;6.376;2022-10-31T08:12:10;102165.97;;;10.08;76.43
55456;BME280;63021;52.836;6.376;2022-10-31T08:14:35;102161.78;;;10.17;77.07
55456;BME280;63021;52.836;6.376;2022-10-31T08:17:01;102158.56;;;10.25;76.27
55456;BME280;63021;52.836;6.376;2022-10-31T08:19:26;102166.81;;;10.33;75.91
55456;BME280;63021;52.836;6.376;2022-10-31T08:21:51;102168.00;;;10.42;76.08
55456;BME280;63021;52.836;6.376;2022-10-31T08:24:17;102175.41;;;10.49;76.00
55456;BME280;63021;52.836;6.376;2022-10-31T08:26:42;102184.41;;;10.60;76.25
55456;BME280;63021;52.836;6.376;2022-10-31T08:29:08;102177.66;;;10.67;76.28
55456;BME280;63021;52.836;6.376;2022-10-31T08:31:33;102183.41;;;10.73;76.39
55456;BME280;63021;52.836;6.376;2022-10-31T08:33:58;102186.44;;;10.80;76.74
55456;BME280;63021;52.836;6.376;2022-10-31T08:36:24;102183.09;;;10.89;77.00
55456;BME280;63021;52.836;6.376;2022-10-31T08:38:49;102175.59;;;10.95;76.34
55456;BME280;63021;52.836;6.376;2022-10-31T08:41:14;102167.84;;;11.03;76.39
55456;BME280;63021;52.836;6.376;2022-10-31T08:43:40;102171.63;;;11.12;76.11
55456;BME280;63021;52.836;6.376;2022-10-31T08:46:05;102166.69;;;11.18;75.87
55456;BME280;63021;52.836;6.376;2022-10-31T08:48:30;102172.28;;;11.26;76.93
55456;BME280;63021;52.836;6.376;2022-10-31T08:50:57;102169.25;;;11.31;76.82
55456;BME280;63021;52.836;6.376;2022-10-31T08:53:23;102172.31;;;11.38;76.86
55456;BME280;63021;52.836;6.376;2022-10-31T08:55:48;102174.47;;;11.44;75.78
55456;BME280;63021;52.836;6.376;2022-10-31T08:58:16;102182.00;;;11.50;76.18
55456;BME280;63021;52.836;6.376;2022-10-31T09:00:42;102178.94;;;11.55;76.23
55456;BME280;63021;52.836;6.376;2022-10-31T09:03:14;102184.91;;;11.58;76.06
55456;BME280;63021;52.836;6.376;2022-10-31T09:05:40;102179.34;;;11.61;76.03
55456;BME280;63021;52.836;6.376;2022-10-31T09:08:05;102177.38;;;11.64;76.30
55456;BME280;63021;52.836;6.376;2022-10-31T09:10:32;102185.16;;;11.67;77.14
55456;BME280;63021;52.836;6.376;2022-10-31T09:13:01;102182.38;;;11.68;76.92
55456;BME280;63021;52.836;6.376;2022-10-31T09:15:29;102187.47;;;11.71;76.69
55456;BME280;63021;52.836;6.376;2022-10-31T09:17:55;102181.75;;;11.76;76.03
55456;BME280;63021;52.836;6.376;2022-10-31T09:20:20;102188.56;;;11.80;76.59
55456;BME280;63021;52.836;6.376;2022-10-31T09:22:46;102182.84;;;11.85;76.49
55456;BME280;63021;52.836;6.376;2022-10-31T09:25:14;102172.78;;;11.88;76.12
55456;BME280;63021;52.836;6.376;2022-10-31T09:27:39;102176.91;;;11.92;76.50
55456;BME280;63021;52.836;6.376;2022-10-31T09:30:05;102174.84;;;11.96;76.70
55456;BME280;63021;52.836;6.376;2022-10-31T09:32:30;102178.16;;;12.00;76.05
55456;BME280;63021;52.836;6.376;2022-10-31T09:34:55;102169.00;;;12.02;76.24
55456;BME280;63021;52.836;6.376;2022-10-31T09:37:21;102168.78;;;12.05;76.52
55456;BME280;63021;52.836;6.376;2022-10-31T09:39:46;102168.53;;;12.08;77.40
55456;BME280;63021;52.836;6.376;2022-10-31T09:42:23;102170.84;;;12.13;77.41
55456;BME280;63021;52.836;6.376;2022-10-31T09:44:55;102168.75;;;12.17;77.04
55456;BME280;63021;52.836;6.376;2022-10-31T09:52:29;102145.44;;;12.30;76.93
55456;BME280;63021;52.836;6.376;2022-10-31T09:55:05;102151.22;;;12.35;76.58
55456;BME280;63021;52.836;6.376;2022-10-31T09:57:34;102144.78;;;12.38;76.31
55456;BME280;63021;52.836;6.376;2022-10-31T10:00:01;102147.06;;;12.42;77.04
55456;BME280;63021;52.836;6.376;2022-10-31T10:02:39;102149.38;;;12.47;76.49
55456;BME280;63021;52.836;6.376;2022-10-31T10:05:12;102141.09;;;12.50;77.10
55456;BME280;63021;52.836;6.376;2022-10-31T10:12:59;102137.41;;;12.62;77.13
55456;BME280;63021;52.836;6.376;2022-10-31T10:15:31;102138.00;;;12.66;76.93
55456;BME280;63021;52.836;6.376;2022-10-31T10:20:31;102150.69;;;12.74;76.65
55456;BME280;63021;52.836;6.376;2022-10-31T10:25:39;102145.44;;;12.83;77.27
55456;BME280;63021;52.836;6.376;2022-10-31T10:33:03;102121.66;;;13.02;76.39
55456;BME280;63021;52.836;6.376;2022-10-31T10:40:40;102119.66;;;13.25;76.85
55456;BME280;63021;52.836;6.376;2022-10-31T10:43:18;102106.72;;;13.30;76.61
55456;BME280;63021;52.836;6.376;2022-10-31T10:45:44;102107.91;;;13.37;76.63
55456;BME280;63021;52.836;6.376;2022-10-31T10:48:54;102104.72;;;13.43;76.47
55456;BME280;63021;52.836;6.376;2022-10-31T10:56:51;102100.28;;;13.63;76.33
55456;BME280;63021;52.836;6.376;2022-10-31T10:59:19;102096.91;;;13.71;76.40
55456;BME280;63021;52.836;6.376;2022-10-31T11:01:46;102097.22;;;13.78;76.36
55456;BME280;63021;52.836;6.376;2022-10-31T11:04:32;102086.78;;;13.84;76.55
55456;BME280;63021;52.836;6.376;2022-10-31T11:07:05;102080.75;;;13.92;76.63
55456;BME280;63021;52.836;6.376;2022-10-31T11:09:31;102078.34;;;13.99;76.43
55456;BME280;63021;52.836;6.376;2022-10-31T11:11:56;102079.47;;;14.06;76.95
55456;BME280;63021;52.836;6.376;2022-10-31T11:14:22;102073.44;;;14.14;76.40
55456;BME280;63021;52.836;6.376;2022-10-31T11:16:52;102069.22;;;14.21;76.38
55456;BME280;63021;52.836;6.376;2022-10-31T11:19:19;102065.81;;;14.29;76.50
55456;BME280;63021;52.836;6.376;2022-10-31T11:21:46;102063.44;;;14.35;76.46
55456;BME280;63021;52.836;6.376;2022-10-31T11:24:16;102059.19;;;14.43;76.23
55456;BME280;63021;52.836;6.376;2022-10-31T11:26:42;102065.81;;;14.48;76.53
55456;BME280;63021;52.836;6.376;2022-10-31T11:29:26;102054.66;;;14.53;76.07
55456;BME280;63021;52.836;6.376;2022-10-31T11:31:52;102043.38;;;14.59;76.31
55456;BME280;63021;52.836;6.376;2022-10-31T11:34:35;102041.97;;;14.65;76.06
55456;BME280;63021;52.836;6.376;2022-10-31T11:37:09;102037.88;;;14.70;76.32
55456;BME280;63021;52.836;6.376;2022-10-31T11:39:40;102029.25;;;14.77;76.04
55456;BME280;63021;52.836;6.376;2022-10-31T11:42:06;102037.84;;;14.80;76.07
55456;BME280;63021;52.836;6.376;2022-10-31T11:44:31;102036.59;;;14.84;75.99
55456;BME280;63021;52.836;6.376;2022-10-31T11:47:01;102034.59;;;14.86;76.15
55456;BME280;63021;52.836;6.376;2022-10-31T11:49:34;102030.78;;;14.89;75.93
55456;BME280;63021;52.836;6.376;2022-10-31T11:52:03;102026.81;;;14.93;76.18
55456;BME280;63021;52.836;6.376;2022-10-31T11:57:25;102009.97;;;15.01;76.05
55456;BME280;63021;52.836;6.376;2022-10-31T11:59:52;102004.31;;;15.04;76.17
55456;BME280;63021;52.836;6.376;2022-10-31T12:02:19;101994.97;;;15.08;75.79
55456;BME280;63021;52.836;6.376;2022-10-31T12:04:45;101983.13;;;15.11;75.78
55456;BME280;63021;52.836;6.376;2022-10-31T12:07:11;101968.41;;;15.15;75.79
55456;BME280;63021;52.836;6.376;2022-10-31T12:09:37;101955.69;;;15.17;75.80
55456;BME280;63021;52.836;6.376;2022-10-31T12:22:36;101935.50;;;15.40;76.01
55456;BME280;63021;52.836;6.376;2022-10-31T12:28:13;101941.63;;;15.51;76.03
55456;BME280;63021;52.836;6.376;2022-10-31T12:38:46;101872.84;;;15.68;75.47
55456;BME280;63021;52.836;6.376;2022-10-31T12:43:46;101854.06;;;15.68;75.52
55456;BME280;63021;52.836;6.376;2022-10-31T12:46:47;101869.47;;;15.66;74.98
55456;BME280;63021;52.836;6.376;2022-10-31T12:56:53;101878.38;;;15.66;75.18
55456;BME280;63021;52.836;6.376;2022-10-31T13:01:57;101878.59;;;15.73;75.48
55456;BME280;63021;52.836;6.376;2022-10-31T13:06:59;101860.88;;;15.80;75.14
55456;BME280;63021;52.836;6.376;2022-10-31T13:09:32;101863.44;;;15.82;75.50
55456;BME280;63021;52.836;6.376;2022-10-31T13:12:03;101864.94;;;15.84;75.11
55456;BME280;63021;52.836;6.376;2022-10-31T13:14:32;101854.03;;;15.86;75.23
55456;BME280;63021;52.836;6.376;2022-10-31T13:16:59;101851.91;;;15.89;75.00
55456;BME280;63021;52.836;6.376;2022-10-31T13:19:27;101838.31;;;15.91;74.66
55456;BME280;63021;52.836;6.376;2022-10-31T13:24:22;101810.97;;;15.96;74.89
55456;BME280;63021;52.836;6.376;2022-10-31T13:29:26;101812.50;;;15.98;74.85
55456;BME280;63021;52.836;6.376;2022-10-31T13:31:52;101809.81;;;15.98;75.20
55456;BME280;63021;52.836;6.376;2022-10-31T13:37:01;101814.22;;;15.99;74.79
55456;BME280;63021;52.836;6.376;2022-10-31T13:42:20;101802.44;;;16.00;74.89
55456;BME280;63021;52.836;6.376;2022-10-31T13:44:48;101796.25;;;16.00;75.06
55456;BME280;63021;52.836;6.376;2022-10-31T13:47:24;101790.88;;;16.00;74.43
55456;BME280;63021;52.836;6.376;2022-10-31T13:49:49;101794.38;;;16.00;74.80
55456;BME280;63021;52.836;6.376;2022-10-31T13:52:16;101782.97;;;15.98;74.68
55456;BME280;63021;52.836;6.376;2022-10-31T13:54:47;101774.25;;;15.96;74.61
55456;BME280;63021;52.836;6.376;2022-10-31T13:59:39;101763.78;;;15.93;74.31
55456;BME280;63021;52.836;6.376;2022-10-31T14:02:12;101763.97;;;15.91;74.66
55456;BME280;63021;52.836;6.376;2022-10-31T14:04:44;101764.97;;;15.90;74.82
55456;BME280;63021;52.836;6.376;2022-10-31T14:07:12;101762.13;;;15.92;74.80
55456;BME280;63021;52.836;6.376;2022-10-31T14:10:01;101759.44;;;15.92;74.61
55456;BME280;63021;52.836;6.376;2022-10-31T14:12:25;101748.88;;;15.90;74.71
55456;BME280;63021;52.836;6.376;2022-10-31T14:14:52;101750.53;;;15.91;74.83
55456;BME280;63021;52.836;6.376;2022-10-31T14:17:21;101752.22;;;15.92;74.96
55456;BME280;63021;52.836;6.376;2022-10-31T14:20:00;101742.31;;;15.93;74.51
55456;BME280;63021;52.836;6.376;2022-10-31T14:22:32;101753.75;;;15.95;74.59
55456;BME280;63021;52.836;6.376;2022-10-31T14:24:58;101741.16;;;15.96;74.73
55456;BME280;63021;52.836;6.376;2022-10-31T14:29:51;101734.97;;;15.95;74.72
55456;BME280;63021;52.836;6.376;2022-10-31T14:32:23;101728.72;;;15.94;74.58
55456;BME280;63021;52.836;6.376;2022-10-31T14:42:19;101713.25;;;15.88;74.52
55456;BME280;63021;52.836;6.376;2022-10-31T14:50:06;101698.81;;;15.81;74.45
55456;BME280;63021;52.836;6.376;2022-10-31T14:52:35;101702.78;;;15.77;74.35
55456;BME280;63021;52.836;6.376;2022-10-31T14:55:02;101701.94;;;15.76;74.60
55456;BME280;63021;52.836;6.376;2022-10-31T14:57:34;101695.88;;;15.74;74.66